createdAt,value
2018-09-04T00:02:08.467Z,32.40
2018-09-04T00:04:36.804Z,39.17
2018-09-04T00:07:05.527Z,34.93
2018-09-04T00:09:34.028Z,36.80
2018-09-04T00:12:02.375Z,35.77
2018-09-04T00:14:30.860Z,38.37
2018-09-04T00:16:59.363Z,35.70
2018-09-04T00:19:27.701Z,42.07
2018-09-04T00:21:56.018Z,40.57
2018-09-04T00:24:24.524Z,35.90
2018-09-04T00:26:52.886Z,35.90
2018-09-04T00:29:21.201Z,38.50
2018-09-04T00:31:49.566Z,38.43
2018-09-04T00:34:17.943Z,41.73
2018-09-04T00:36:46.293Z,41.03
2018-09-04T00:39:14.789Z,37.63
2018-09-04T00:41:43.126Z,37.07
2018-09-04T00:44:11.440Z,38.20
2018-09-04T00:46:39.789Z,42.60
2018-09-04T00:49:08.092Z,43.60
2018-09-04T00:51:36.462Z,39.70
2018-09-04T00:54:04.798Z,42.30
2018-09-04T00:56:33.158Z,40.43
2018-09-04T00:59:01.771Z,36.63
2018-09-04T01:01:30.011Z,38.80
2018-09-04T01:03:58.358Z,38.57
2018-09-04T01:06:26.754Z,38.07
2018-09-04T01:08:55.119Z,41.57
2018-09-04T01:11:23.453Z,37.60
2018-09-04T01:13:51.861Z,34.73
2018-09-04T01:16:21.093Z,37.03
2018-09-04T01:18:49.413Z,36.93
2018-09-04T01:21:17.953Z,43.50
2018-09-04T01:23:46.298Z,38.30
2018-09-04T01:26:14.657Z,37.67
2018-09-04T01:28:43.171Z,41.37
2018-09-04T01:31:11.529Z,37.70
2018-09-04T01:33:39.934Z,40.37
2018-09-04T01:36:08.308Z,37.30
2018-09-04T01:38:36.755Z,40.90
2018-09-04T01:41:05.363Z,43.40
2018-09-04T01:43:33.747Z,36.33
2018-09-04T01:46:02.076Z,41.43
2018-09-04T01:48:30.422Z,39.37
2018-09-04T01:50:58.741Z,37.37
2018-09-04T01:53:27.078Z,36.50
2018-09-04T01:55:55.572Z,39.63
2018-09-04T01:58:23.970Z,41.27
2018-09-04T02:00:52.374Z,36.80
2018-09-04T02:03:20.985Z,36.70
2018-09-04T02:05:49.383Z,43.60
2018-09-04T02:08:17.762Z,42.50
2018-09-04T02:10:46.314Z,41.80
2018-09-04T02:13:14.799Z,39.97
2018-09-04T02:15:43.284Z,42.67
2018-09-04T02:18:11.887Z,39.43
2018-09-04T02:20:40.251Z,41.50
2018-09-04T02:23:08.856Z,43.00
2018-09-04T02:25:37.236Z,43.73
2018-09-04T02:28:05.665Z,50.70
2018-09-04T02:30:34.136Z,49.73
2018-09-04T02:33:02.628Z,49.50
2018-09-04T02:35:31.027Z,47.10
2018-09-04T02:37:59.539Z,45.80
2018-09-04T02:40:27.889Z,49.13
2018-09-04T02:42:56.290Z,46.30
2018-09-04T02:45:24.828Z,49.87
2018-09-04T02:47:53.227Z,46.53
2018-09-04T02:50:21.598Z,44.60
2018-09-04T02:52:49.997Z,46.37
2018-09-04T02:55:18.380Z,48.03
2018-09-04T02:57:46.779Z,43.57
2018-09-04T03:00:15.243Z,50.00
2018-09-04T03:02:43.643Z,46.77
2018-09-04T03:05:12.035Z,49.30
2018-09-04T03:07:40.504Z,46.40
2018-09-04T03:10:09.097Z,45.77
2018-09-04T03:12:37.574Z,48.43
2018-09-04T03:15:06.322Z,48.20
2018-09-04T03:17:34.885Z,45.23
2018-09-04T03:20:03.363Z,48.00
2018-09-04T03:22:31.956Z,50.20
2018-09-04T03:25:00.368Z,45.60
2018-09-04T03:27:28.747Z,45.83
2018-09-04T03:29:57.139Z,45.90
2018-09-04T03:32:25.517Z,45.30
2018-09-04T03:34:54.034Z,45.73
2018-09-04T03:37:22.446Z,44.77
2018-09-04T03:39:50.877Z,43.27
2018-09-04T03:42:19.331Z,43.03
2018-09-04T03:44:47.874Z,38.27
2018-09-04T03:47:16.300Z,43.27
2018-09-04T03:49:44.696Z,43.53
2018-09-04T03:52:13.256Z,42.50
2018-09-04T03:54:41.601Z,42.70
2018-09-04T03:57:10.051Z,40.87
2018-09-04T03:59:38.459Z,41.37
2018-09-04T04:02:07.003Z,42.43
2018-09-04T04:04:35.454Z,42.17
2018-09-04T04:07:03.859Z,44.43
2018-09-04T04:09:32.297Z,43.33
2018-09-04T04:12:00.954Z,40.87
2018-09-04T04:14:29.283Z,54.57
2018-09-04T04:16:57.727Z,49.20
2018-09-04T04:19:26.169Z,46.37
2018-09-04T04:21:54.646Z,47.50
2018-09-04T04:24:23.073Z,44.47
2018-09-04T04:26:51.459Z,47.60
2018-09-04T04:29:19.898Z,46.63
2018-09-04T04:31:48.499Z,45.90
2018-09-04T04:34:16.963Z,48.73
2018-09-04T04:36:45.350Z,48.83
2018-09-04T04:39:13.747Z,46.20
2018-09-04T04:41:42.334Z,50.03
2018-09-04T04:44:10.696Z,45.47
2018-09-04T04:46:39.252Z,47.47
2018-09-04T04:49:08.038Z,47.67
2018-09-04T04:51:36.405Z,46.77
2018-09-04T04:54:05.118Z,48.80
2018-09-04T04:56:33.569Z,47.40
2018-09-04T04:59:01.949Z,48.50
2018-09-04T05:01:30.423Z,49.77
2018-09-04T05:03:59.343Z,45.33
2018-09-04T05:06:27.791Z,43.83
2018-09-04T05:08:56.299Z,46.17
2018-09-04T05:11:24.744Z,42.97
2018-09-04T05:13:53.126Z,41.87
2018-09-04T05:16:21.590Z,46.63
2018-09-04T05:18:49.963Z,47.60
2018-09-04T05:21:18.386Z,43.10
2018-09-04T05:23:46.784Z,48.50
2018-09-04T05:26:15.232Z,49.13
2018-09-04T05:28:43.789Z,44.43
2018-09-04T05:31:12.253Z,41.77
2018-09-04T05:33:43.470Z,45.10
2018-09-04T05:36:12.074Z,47.03
2018-09-04T05:38:40.451Z,41.40
2018-09-04T05:41:09.563Z,44.07
2018-09-04T05:43:43.062Z,41.97
2018-09-04T05:46:15.884Z,45.77
2018-09-04T05:48:44.316Z,43.63
2018-09-04T05:51:12.702Z,41.20
2018-09-04T05:53:41.320Z,40.40
2018-09-04T05:56:09.763Z,41.27
2018-09-04T05:58:38.179Z,44.30
2018-09-04T06:01:06.651Z,39.03
2018-09-04T06:03:35.038Z,41.37
2018-09-04T06:06:03.453Z,45.63
2018-09-04T06:08:31.907Z,42.47
2018-09-04T06:11:00.483Z,44.60
2018-09-04T06:13:28.862Z,44.40
2018-09-04T06:15:57.255Z,41.97
2018-09-04T06:18:25.806Z,45.87
2018-09-04T06:20:54.212Z,39.33
2018-09-04T06:23:22.630Z,51.80
2018-09-04T06:25:51.243Z,43.30
2018-09-04T06:28:19.636Z,45.23
2018-09-04T06:30:48.055Z,41.67
2018-09-04T06:33:16.633Z,43.50
2018-09-04T06:35:45.027Z,43.83
2018-09-04T06:38:13.461Z,67.70
2018-09-04T06:40:42.026Z,51.63
2018-09-04T06:43:10.394Z,43.30
2018-09-04T06:45:38.791Z,48.40
2018-09-04T06:48:07.310Z,41.43
2018-09-04T06:50:35.731Z,40.00
2018-09-04T06:53:04.106Z,40.33
2018-09-04T06:55:32.635Z,38.70
2018-09-04T06:58:01.131Z,39.80
2018-09-04T07:00:29.399Z,43.60
2018-09-04T07:02:57.886Z,40.13
2018-09-04T07:05:26.255Z,40.27
2018-09-04T07:07:54.641Z,43.43
2018-09-04T07:10:23.190Z,44.97
2018-09-04T07:12:51.563Z,49.17
2018-09-04T07:15:19.954Z,50.30
2018-09-04T07:17:48.411Z,47.43
2018-09-04T07:20:17.139Z,43.70
2018-09-04T07:22:45.554Z,41.10
2018-09-04T07:25:13.927Z,44.30
2018-09-04T07:27:42.511Z,37.27
2018-09-04T07:30:10.952Z,42.40
2018-09-04T07:32:39.416Z,40.67
2018-09-04T07:35:07.795Z,41.33
2018-09-04T07:37:36.237Z,38.00
2018-09-04T07:40:04.651Z,36.13
2018-09-04T07:42:33.184Z,38.30
2018-09-04T07:45:01.600Z,37.50
2018-09-04T07:47:30.051Z,39.63
2018-09-04T07:49:58.637Z,33.63
2018-09-04T07:52:27.034Z,35.47
2018-09-04T07:54:55.430Z,38.33
2018-09-04T07:57:24.035Z,40.93
2018-09-04T07:59:52.724Z,37.23
2018-09-04T08:02:21.175Z,35.40
2018-09-04T08:04:49.746Z,34.53
2018-09-04T08:07:18.236Z,31.33
2018-09-04T08:09:46.618Z,34.10
2018-09-04T08:12:15.269Z,34.80
2018-09-04T08:14:43.711Z,31.50
2018-09-04T08:17:12.312Z,29.07
2018-09-04T08:19:40.899Z,27.93
2018-09-04T08:22:09.343Z,28.23
2018-09-04T08:24:37.730Z,24.87
2018-09-04T08:27:06.383Z,27.00
2018-09-04T08:29:34.801Z,23.90
2018-09-04T08:32:03.246Z,25.77
2018-09-04T08:34:31.913Z,26.73
2018-09-04T08:37:00.309Z,22.40
2018-09-04T08:39:28.812Z,18.83
2018-09-04T08:41:57.258Z,21.13
2018-09-04T08:44:25.696Z,20.23
2018-09-04T08:46:54.094Z,17.87
2018-09-04T08:49:22.554Z,21.50
2018-09-04T08:51:50.990Z,17.33
2018-09-04T08:54:19.448Z,15.77
2018-09-04T08:56:48.072Z,17.77
2018-09-04T08:59:16.525Z,19.03
2018-09-04T09:01:44.981Z,19.53
2018-09-04T09:04:13.426Z,17.10
2018-09-04T09:06:41.868Z,18.80
2018-09-04T09:09:10.884Z,18.87
2018-09-04T09:11:39.328Z,18.93
2018-09-04T09:14:07.746Z,16.50
2018-09-04T09:16:36.519Z,20.83
2018-09-04T09:19:04.947Z,14.17
2018-09-04T09:21:33.474Z,15.20
2018-09-04T09:24:01.926Z,15.10
2018-09-04T09:26:30.421Z,16.33
2018-09-04T09:28:59.048Z,14.30
2018-09-04T09:31:27.893Z,14.13
2018-09-04T09:33:56.323Z,17.00
2018-09-04T09:36:25.066Z,14.43
2018-09-04T09:38:53.655Z,13.60
2018-09-04T09:41:22.117Z,15.40
2018-09-04T09:43:50.699Z,13.13
2018-09-04T09:46:19.103Z,17.67
2018-09-04T09:48:47.516Z,12.70
2018-09-04T09:51:16.128Z,14.23
2018-09-04T09:53:44.555Z,12.30
2018-09-04T09:56:13.002Z,16.07
2018-09-04T09:58:41.596Z,15.10
2018-09-04T10:01:15.193Z,13.33
2018-09-04T10:03:45.170Z,15.67
2018-09-04T10:06:13.596Z,15.27
2018-09-04T10:08:42.033Z,13.10
2018-09-04T10:11:10.737Z,12.50
2018-09-04T10:13:39.097Z,12.10
2018-09-04T10:16:07.489Z,10.47
2018-09-04T10:18:36.079Z,13.67
2018-09-04T10:21:04.634Z,12.27
2018-09-04T10:23:33.104Z,13.23
2018-09-04T10:26:01.766Z,12.53
2018-09-04T10:28:30.268Z,19.73
2018-09-04T10:30:58.743Z,19.60
2018-09-04T10:33:27.347Z,14.50
2018-09-04T10:35:55.756Z,12.30
2018-09-04T10:38:25.076Z,12.93
2018-09-04T10:40:54.887Z,12.27
2018-09-04T10:43:26.966Z,13.00
2018-09-04T10:46:00.923Z,11.57
2018-09-04T10:48:30.370Z,13.60
2018-09-04T10:50:59.153Z,12.80
2018-09-04T10:53:27.797Z,11.43
2018-09-04T10:55:56.234Z,16.50
2018-09-04T10:58:24.653Z,14.50
2018-09-04T11:00:53.074Z,14.70
2018-09-04T11:03:21.528Z,16.00
2018-09-04T11:05:50.033Z,14.93
2018-09-04T11:08:18.807Z,14.07
2018-09-04T11:10:47.244Z,13.60
2018-09-04T11:13:15.839Z,11.50
2018-09-04T11:15:44.312Z,11.40
2018-09-04T11:18:12.760Z,10.00
2018-09-04T11:20:41.369Z,12.13
2018-09-04T11:23:09.827Z,10.90
2018-09-04T11:25:38.247Z,10.60
2018-09-04T11:28:07.199Z,10.40
2018-09-04T11:30:35.652Z,9.53
2018-09-04T11:33:03.986Z,8.80
2018-09-04T11:35:32.762Z,7.50
2018-09-04T11:38:01.176Z,7.57
2018-09-04T11:40:29.637Z,9.93
2018-09-04T11:42:58.311Z,10.10
2018-09-04T11:45:26.738Z,9.10
2018-09-04T11:47:55.173Z,9.20
2018-09-04T11:50:23.670Z,8.60
2018-09-04T11:52:52.109Z,9.87
2018-09-04T11:55:20.715Z,10.27
2018-09-04T11:57:49.165Z,11.03
2018-09-04T12:00:29.436Z,9.37
2018-09-04T12:02:57.918Z,10.97
2018-09-04T12:05:26.340Z,11.63
2018-09-04T12:07:54.965Z,11.57
2018-09-04T12:10:23.372Z,10.90
2018-09-04T12:12:51.799Z,11.30
2018-09-04T12:15:20.259Z,12.53
2018-09-04T12:17:48.665Z,13.07
2018-09-04T12:20:29.314Z,12.50
2018-09-04T12:22:57.743Z,12.23
2018-09-04T12:25:26.666Z,11.63
2018-09-04T12:27:55.141Z,12.00
2018-09-04T12:30:23.718Z,13.00
2018-09-04T12:32:52.513Z,12.87
2018-09-04T12:35:20.920Z,11.70
2018-09-04T12:37:49.346Z,14.10
2018-09-04T12:40:17.966Z,14.13
2018-09-04T12:42:46.416Z,13.80
2018-09-04T12:45:14.911Z,14.63
2018-09-04T12:47:43.392Z,13.23
2018-09-04T12:50:11.794Z,13.87
2018-09-04T12:52:40.193Z,15.57
2018-09-04T12:55:08.642Z,16.00
2018-09-04T12:57:37.033Z,15.10
2018-09-04T13:00:05.825Z,15.10
2018-09-04T13:02:34.284Z,22.37
2018-09-04T13:05:02.680Z,15.90
2018-09-04T13:07:31.158Z,16.23
2018-09-04T13:09:59.572Z,13.57
2018-09-04T13:12:27.988Z,14.83
2018-09-04T13:14:56.641Z,15.33
2018-09-04T13:17:25.654Z,14.10
2018-09-04T13:19:54.284Z,15.27
2018-09-04T13:22:22.692Z,17.60
2018-09-04T13:24:51.086Z,14.27
2018-09-04T13:27:19.714Z,15.30
2018-09-04T13:29:48.115Z,14.80
2018-09-04T13:32:16.543Z,14.00
2018-09-04T13:34:45.148Z,15.23
2018-09-04T13:37:13.721Z,14.90
2018-09-04T13:39:42.114Z,15.07
2018-09-04T13:42:10.588Z,15.60
2018-09-04T13:44:38.999Z,19.20
2018-09-04T13:47:07.535Z,25.00
2018-09-04T13:49:36.086Z,18.00
2018-09-04T13:52:04.362Z,16.03
2018-09-04T13:54:32.773Z,16.30
2018-09-04T13:57:01.235Z,16.03
2018-09-04T13:59:29.621Z,16.27
2018-09-04T14:01:58.035Z,16.23
2018-09-04T14:04:26.452Z,15.50
2018-09-04T14:06:54.799Z,15.60
2018-09-04T14:09:23.187Z,16.03
2018-09-04T14:11:51.599Z,15.77
2018-09-04T14:14:20.031Z,17.20
2018-09-04T14:16:48.521Z,16.93
2018-09-04T14:19:16.866Z,16.47
2018-09-04T14:21:45.241Z,15.43
2018-09-04T14:24:13.669Z,17.17
2018-09-04T14:26:42.065Z,16.90
2018-09-04T14:29:10.560Z,16.80
2018-09-04T14:31:38.947Z,16.20
2018-09-04T14:34:07.342Z,16.60
2018-09-04T14:36:36.088Z,17.00
2018-09-04T14:39:05.123Z,16.00
2018-09-04T14:41:33.599Z,15.57
2018-09-04T14:44:02.107Z,16.53
2018-09-04T14:46:30.546Z,16.07
2018-09-04T14:48:58.998Z,16.40
2018-09-04T14:51:27.628Z,17.60
2018-09-04T14:53:56.107Z,16.60
2018-09-04T14:56:24.546Z,23.50
2018-09-04T14:58:53.011Z,17.33
2018-09-04T15:01:21.422Z,17.27
2018-09-04T15:03:49.943Z,18.30
2018-09-04T15:06:18.407Z,15.70
2018-09-04T15:08:46.830Z,16.63
2018-09-04T15:11:15.321Z,16.47
2018-09-04T15:13:43.726Z,14.63
2018-09-04T15:16:12.342Z,16.43
2018-09-04T15:18:40.765Z,17.33
2018-09-04T15:21:09.203Z,16.50
2018-09-04T15:23:37.646Z,16.40
2018-09-04T15:26:06.275Z,15.93
2018-09-04T15:28:34.686Z,15.80
2018-09-04T15:31:03.204Z,16.10
2018-09-04T15:33:31.815Z,15.97
2018-09-04T15:36:00.263Z,16.97
2018-09-04T15:38:28.908Z,16.33
2018-09-04T15:40:57.332Z,15.47
2018-09-04T15:43:25.758Z,15.67
2018-09-04T15:45:54.351Z,17.77
2018-09-04T15:48:22.756Z,17.10
2018-09-04T15:50:51.274Z,15.60
2018-09-04T15:53:19.735Z,16.50
2018-09-04T15:55:48.218Z,16.40
2018-09-04T15:58:16.651Z,16.13
2018-09-04T16:00:45.266Z,16.70
2018-09-04T16:03:13.849Z,16.20
2018-09-04T16:05:42.269Z,16.57
2018-09-04T16:08:10.895Z,19.60
2018-09-04T16:10:39.298Z,20.33
2018-09-04T16:13:07.717Z,16.70
2018-09-04T16:15:36.326Z,17.03
2018-09-04T16:18:04.798Z,16.33
2018-09-04T16:20:33.214Z,17.80
2018-09-04T16:23:01.663Z,16.37
2018-09-04T16:25:30.112Z,16.53
2018-09-04T16:27:58.569Z,17.67
2018-09-04T16:30:27.013Z,16.90
2018-09-04T16:32:55.620Z,17.00
2018-09-04T16:35:24.044Z,16.80
2018-09-04T16:37:52.492Z,17.50
2018-09-04T16:40:21.102Z,16.13
2018-09-04T16:42:49.567Z,17.63
2018-09-04T16:45:18.065Z,17.87
2018-09-04T16:47:46.554Z,20.20
2018-09-04T16:50:14.974Z,16.83
2018-09-04T16:52:43.378Z,18.10
2018-09-04T16:55:12.003Z,18.40
2018-09-04T16:57:40.394Z,19.87
2018-09-04T17:00:08.858Z,17.10
2018-09-04T17:02:37.528Z,16.13
2018-09-04T17:05:06.040Z,17.07
2018-09-04T17:07:34.498Z,23.60
2018-09-04T17:10:02.922Z,41.00
2018-09-04T17:12:31.671Z,23.70
2018-09-04T17:15:00.079Z,22.43
2018-09-04T17:17:28.570Z,24.23
2018-09-04T17:19:56.958Z,22.90
2018-09-04T17:22:25.471Z,21.57
2018-09-04T17:24:53.858Z,17.90
2018-09-04T17:27:22.264Z,18.53
2018-09-04T17:29:50.739Z,15.00
2018-09-04T17:32:19.246Z,14.47
2018-09-04T17:34:47.675Z,14.27
2018-09-04T17:37:16.417Z,16.23
2018-09-04T17:39:44.876Z,18.37
2018-09-04T17:42:13.289Z,15.30
2018-09-04T17:44:41.906Z,14.37
2018-09-04T17:47:10.368Z,14.50
2018-09-04T17:49:38.800Z,14.13
2018-09-04T17:52:07.340Z,14.20
2018-09-04T17:54:35.779Z,13.33
2018-09-04T17:57:04.234Z,12.30
2018-09-04T17:59:32.705Z,11.80
2018-09-04T18:02:01.187Z,12.47
2018-09-04T18:04:29.602Z,13.27
2018-09-04T18:06:58.254Z,12.50
2018-09-04T18:09:26.689Z,13.07
2018-09-04T18:11:55.143Z,12.07
2018-09-04T18:14:23.677Z,12.77
2018-09-04T18:16:52.256Z,12.60
2018-09-04T18:19:21.174Z,12.00
2018-09-04T18:21:49.776Z,12.00
2018-09-04T18:24:18.243Z,10.57
2018-09-04T18:26:46.790Z,10.50
2018-09-04T18:29:15.363Z,11.83
2018-09-04T18:31:43.838Z,11.37
2018-09-04T18:34:12.318Z,10.40
2018-09-04T18:36:40.871Z,10.80
2018-09-04T18:39:09.316Z,10.93
2018-09-04T18:41:37.862Z,10.53
2018-09-04T18:44:06.420Z,14.50
2018-09-04T18:46:34.886Z,12.97
2018-09-04T18:49:03.489Z,12.37
2018-09-04T18:51:31.807Z,11.73
2018-09-04T18:54:00.214Z,10.77
2018-09-04T18:59:02.394Z,11.03
2018-09-04T19:01:30.824Z,11.33
2018-09-04T19:03:59.202Z,11.70
2018-09-04T19:06:27.630Z,10.80
2018-09-04T19:08:56.083Z,10.20
2018-09-04T19:11:24.471Z,11.23
2018-09-04T19:13:52.914Z,11.23
2018-09-04T19:16:21.478Z,11.40
2018-09-04T19:18:49.974Z,10.07
2018-09-04T19:21:18.574Z,11.27
2018-09-04T19:23:47.095Z,10.67
2018-09-04T19:26:15.547Z,10.93
2018-09-04T19:28:43.927Z,10.27
2018-09-04T19:31:12.351Z,11.70
2018-09-04T19:33:40.834Z,14.53
2018-09-04T19:36:09.372Z,21.77
2018-09-04T19:38:37.855Z,30.50
2018-09-04T19:41:06.281Z,17.00
2018-09-04T19:43:34.726Z,12.80
2018-09-04T19:46:03.150Z,13.93
2018-09-04T19:48:31.536Z,12.10
2018-09-04T19:51:00.067Z,11.80
2018-09-04T19:53:28.443Z,11.20
2018-09-04T19:55:56.867Z,12.10
2018-09-04T19:58:25.316Z,11.70
2018-09-04T20:00:53.770Z,11.43
2018-09-04T20:03:22.077Z,12.03
2018-09-04T20:05:50.544Z,11.80
2018-09-04T20:08:18.952Z,13.63
2018-09-04T20:10:47.359Z,14.00
2018-09-04T20:13:15.846Z,12.53
2018-09-04T20:15:44.154Z,12.83
2018-09-04T20:18:12.534Z,14.63
2018-09-04T20:20:40.963Z,12.20
2018-09-04T20:23:09.356Z,12.63
2018-09-04T20:25:37.780Z,12.97
2018-09-04T20:28:06.229Z,11.17
2018-09-04T20:30:34.593Z,16.00
2018-09-04T20:33:02.999Z,12.60
2018-09-04T20:35:31.418Z,12.13
2018-09-04T20:37:59.792Z,28.67
2018-09-04T20:40:28.215Z,34.10
2018-09-04T20:42:56.642Z,18.57
2018-09-04T20:45:25.051Z,11.97
2018-09-04T20:47:53.511Z,12.80
2018-09-04T20:50:21.958Z,12.37
2018-09-04T20:52:50.350Z,12.43
2018-09-04T20:55:18.900Z,13.20
2018-09-04T20:57:58.430Z,12.87
2018-09-04T21:00:38.263Z,11.90
2018-09-04T21:03:17.815Z,13.03
2018-09-04T21:05:57.538Z,13.30
2018-09-04T21:08:39.046Z,13.70
2018-09-04T21:11:08.014Z,12.67
2018-09-04T21:13:36.398Z,12.33
2018-09-04T21:16:04.826Z,11.73
2018-09-04T21:18:33.243Z,12.80
2018-09-04T21:21:01.636Z,13.30
2018-09-04T21:23:30.016Z,13.07
2018-09-04T21:25:58.464Z,13.90
2018-09-04T21:28:26.854Z,13.13
2018-09-04T21:30:55.260Z,12.77
2018-09-04T21:33:23.763Z,13.33
2018-09-04T21:35:52.199Z,15.10
2018-09-04T21:38:20.659Z,13.13
2018-09-04T21:40:49.112Z,12.60
2018-09-04T21:43:17.511Z,14.73
2018-09-04T21:45:45.940Z,14.00
2018-09-04T21:48:14.431Z,15.60
2018-09-04T21:50:42.897Z,14.67
2018-09-04T21:53:11.307Z,13.70
2018-09-04T21:55:39.753Z,13.33
2018-09-04T21:58:08.150Z,13.33
2018-09-04T22:00:36.641Z,14.07
2018-09-04T22:03:05.088Z,15.00
2018-09-04T22:05:33.531Z,15.20
2018-09-04T22:08:02.001Z,15.10
2018-09-04T22:10:30.519Z,15.40
2018-09-04T22:12:58.972Z,14.53
2018-09-04T22:15:27.424Z,13.63
2018-09-04T22:17:55.838Z,15.50
2018-09-04T22:20:24.506Z,15.43
2018-09-04T22:22:52.926Z,16.57
2018-09-04T22:25:21.434Z,14.43
2018-09-04T22:28:31.464Z,15.47
2018-09-04T22:30:59.928Z,17.57
2018-09-04T22:33:28.415Z,13.10
2018-09-04T22:35:56.831Z,16.40
2018-09-04T22:38:25.314Z,14.47
2018-09-04T22:40:53.747Z,15.00
2018-09-04T22:43:22.225Z,15.03
2018-09-04T22:45:50.672Z,14.80
2018-09-04T22:48:19.084Z,15.97
2018-09-04T22:50:52.830Z,15.70
2018-09-04T22:53:21.251Z,14.83
2018-09-04T22:55:49.638Z,16.03
2018-09-04T22:58:18.048Z,18.33
2018-09-04T23:00:46.478Z,16.20
2018-09-04T23:03:14.911Z,15.40
2018-09-04T23:05:43.345Z,16.00
2018-09-04T23:08:11.707Z,16.20
2018-09-04T23:10:40.152Z,16.50
2018-09-04T23:13:08.543Z,16.60
2018-09-04T23:15:43.222Z,16.97
2018-09-04T23:18:12.628Z,18.00
2018-09-04T23:20:41.288Z,15.10
2018-09-04T23:23:10.035Z,16.30
2018-09-04T23:25:38.472Z,15.37
2018-09-04T23:28:07.295Z,15.63
2018-09-04T23:30:35.717Z,19.30
2018-09-04T23:33:04.107Z,16.27
2018-09-04T23:35:32.517Z,15.87
2018-09-04T23:38:00.943Z,17.50
2018-09-04T23:40:29.341Z,16.70
2018-09-04T23:42:57.774Z,15.03
2018-09-04T23:45:26.196Z,19.43
2018-09-04T23:47:54.598Z,18.20
2018-09-04T23:50:23.139Z,16.87
2018-09-04T23:52:51.567Z,15.63
2018-09-04T23:55:19.959Z,15.83
2018-09-04T23:57:48.403Z,16.73
